sensor_id;sensor_type;location;lat;lon;timestamp;P1;durP1;ratioP1;P2;durP2;ratioP2
57643;SDS011;43474;46.510;6.686;2024-02-28T00:02:18;10.57;;;6.53;;
57643;SDS011;43474;46.510;6.686;2024-02-28T00:04:43;12.00;;;6.68;;
57643;SDS011;43474;46.510;6.686;2024-02-28T00:07:09;16.58;;;7.63;;
57643;SDS011;43474;46.510;6.686;2024-02-28T00:09:35;16.25;;;6.25;;
57643;SDS011;43474;46.510;6.686;2024-02-28T00:12:01;11.85;;;6.65;;
57643;SDS011;43474;46.510;6.686;2024-02-28T00:14:26;10.65;;;5.10;;
57643;SDS011;43474;46.510;6.686;2024-02-28T00:16:52;13.45;;;7.28;;
57643;SDS011;43474;46.510;6.686;2024-02-28T00:19:18;11.90;;;6.22;;
57643;SDS011;43474;46.510;6.686;2024-02-28T00:21:45;14.07;;;6.43;;
57643;SDS011;43474;46.510;6.686;2024-02-28T00:24:11;16.25;;;8.25;;
57643;SDS011;43474;46.510;6.686;2024-02-28T00:26:40;14.90;;;7.45;;
57643;SDS011;43474;46.510;6.686;2024-02-28T00:29:07;13.98;;;8.27;;
57643;SDS011;43474;46.510;6.686;2024-02-28T00:31:34;13.82;;;6.95;;
57643;SDS011;43474;46.510;6.686;2024-02-28T00:33:59;14.95;;;8.60;;
57643;SDS011;43474;46.510;6.686;2024-02-28T00:36:25;12.52;;;5.18;;
57643;SDS011;43474;46.510;6.686;2024-02-28T00:38:51;13.55;;;6.57;;
57643;SDS011;43474;46.510;6.686;2024-02-28T00:41:17;17.23;;;8.13;;
57643;SDS011;43474;46.510;6.686;2024-02-28T00:43:42;13.02;;;7.30;;
57643;SDS011;43474;46.510;6.686;2024-02-28T00:46:08;10.25;;;6.32;;
57643;SDS011;43474;46.510;6.686;2024-02-28T00:48:39;16.48;;;8.15;;
57643;SDS011;43474;46.510;6.686;2024-02-28T00:51:05;15.57;;;7.88;;
57643;SDS011;43474;46.510;6.686;2024-02-28T00:53:33;17.33;;;7.95;;
57643;SDS011;43474;46.510;6.686;2024-02-28T00:55:59;14.75;;;7.15;;
57643;SDS011;43474;46.510;6.686;2024-02-28T00:58:24;18.67;;;8.85;;
57643;SDS011;43474;46.510;6.686;2024-02-28T01:00:53;15.98;;;7.82;;
57643;SDS011;43474;46.510;6.686;2024-02-28T01:03:19;14.43;;;7.13;;
57643;SDS011;43474;46.510;6.686;2024-02-28T01:05:45;15.93;;;8.43;;
57643;SDS011;43474;46.510;6.686;2024-02-28T01:08:11;17.58;;;7.88;;
57643;SDS011;43474;46.510;6.686;2024-02-28T01:10:37;14.98;;;6.50;;
57643;SDS011;43474;46.510;6.686;2024-02-28T01:13:03;15.60;;;7.45;;
57643;SDS011;43474;46.510;6.686;2024-02-28T01:15:29;10.73;;;6.78;;
57643;SDS011;43474;46.510;6.686;2024-02-28T01:17:55;11.90;;;6.70;;
57643;SDS011;43474;46.510;6.686;2024-02-28T01:20:21;13.52;;;6.50;;
57643;SDS011;43474;46.510;6.686;2024-02-28T01:22:47;20.73;;;6.43;;
57643;SDS011;43474;46.510;6.686;2024-02-28T01:25:16;14.98;;;6.53;;
57643;SDS011;43474;46.510;6.686;2024-02-28T01:27:42;14.30;;;6.75;;
57643;SDS011;43474;46.510;6.686;2024-02-28T01:30:08;19.55;;;8.32;;
57643;SDS011;43474;46.510;6.686;2024-02-28T01:32:34;17.80;;;7.90;;
57643;SDS011;43474;46.510;6.686;2024-02-28T01:35:02;14.45;;;7.55;;
57643;SDS011;43474;46.510;6.686;2024-02-28T01:37:28;13.52;;;7.97;;
57643;SDS011;43474;46.510;6.686;2024-02-28T01:39:55;16.17;;;7.35;;
57643;SDS011;43474;46.510;6.686;2024-02-28T01:42:21;12.68;;;7.18;;
57643;SDS011;43474;46.510;6.686;2024-02-28T01:44:49;14.00;;;7.93;;
57643;SDS011;43474;46.510;6.686;2024-02-28T01:47:15;15.25;;;7.40;;
57643;SDS011;43474;46.510;6.686;2024-02-28T01:49:41;20.00;;;7.28;;
57643;SDS011;43474;46.510;6.686;2024-02-28T01:52:08;13.95;;;6.95;;
57643;SDS011;43474;46.510;6.686;2024-02-28T01:54:35;20.80;;;7.80;;
57643;SDS011;43474;46.510;6.686;2024-02-28T01:57:01;20.33;;;8.52;;
57643;SDS011;43474;46.510;6.686;2024-02-28T01:59:28;19.75;;;7.35;;
57643;SDS011;43474;46.510;6.686;2024-02-28T02:01:55;13.50;;;7.93;;
57643;SDS011;43474;46.510;6.686;2024-02-28T02:04:21;14.55;;;7.40;;
57643;SDS011;43474;46.510;6.686;2024-02-28T02:06:49;11.82;;;6.30;;
57643;SDS011;43474;46.510;6.686;2024-02-28T02:09:16;19.30;;;8.57;;
57643;SDS011;43474;46.510;6.686;2024-02-28T02:11:43;12.55;;;6.55;;
57643;SDS011;43474;46.510;6.686;2024-02-28T02:14:10;16.25;;;8.68;;
57643;SDS011;43474;46.510;6.686;2024-02-28T02:16:37;15.40;;;8.07;;
57643;SDS011;43474;46.510;6.686;2024-02-28T02:19:03;18.33;;;7.32;;
57643;SDS011;43474;46.510;6.686;2024-02-28T02:21:30;17.90;;;8.50;;
57643;SDS011;43474;46.510;6.686;2024-02-28T02:24:03;18.40;;;8.32;;
57643;SDS011;43474;46.510;6.686;2024-02-28T02:26:30;19.13;;;8.35;;
57643;SDS011;43474;46.510;6.686;2024-02-28T02:28:56;5.20;;;4.10;;
57643;SDS011;43474;46.510;6.686;2024-02-28T02:31:22;18.25;;;8.43;;
57643;SDS011;43474;46.510;6.686;2024-02-28T02:33:48;12.35;;;7.50;;
57643;SDS011;43474;46.510;6.686;2024-02-28T02:36:14;10.23;;;5.68;;
57643;SDS011;43474;46.510;6.686;2024-02-28T02:38:41;16.23;;;9.23;;
57643;SDS011;43474;46.510;6.686;2024-02-28T02:41:07;19.83;;;7.97;;
57643;SDS011;43474;46.510;6.686;2024-02-28T02:43:33;19.05;;;9.18;;
57643;SDS011;43474;46.510;6.686;2024-02-28T02:45:59;19.00;;;7.25;;
57643;SDS011;43474;46.510;6.686;2024-02-28T02:48:25;19.75;;;9.75;;
57643;SDS011;43474;46.510;6.686;2024-02-28T02:50:51;19.95;;;10.15;;
57643;SDS011;43474;46.510;6.686;2024-02-28T02:53:17;25.30;;;8.98;;
57643;SDS011;43474;46.510;6.686;2024-02-28T02:55:44;20.73;;;9.32;;
57643;SDS011;43474;46.510;6.686;2024-02-28T02:58:12;18.85;;;9.20;;
57643;SDS011;43474;46.510;6.686;2024-02-28T03:00:38;14.18;;;7.20;;
57643;SDS011;43474;46.510;6.686;2024-02-28T03:03:04;20.23;;;8.38;;
57643;SDS011;43474;46.510;6.686;2024-02-28T03:05:31;17.10;;;8.35;;
57643;SDS011;43474;46.510;6.686;2024-02-28T03:07:57;22.10;;;7.88;;
57643;SDS011;43474;46.510;6.686;2024-02-28T03:10:23;12.10;;;7.15;;
57643;SDS011;43474;46.510;6.686;2024-02-28T03:12:49;19.35;;;9.65;;
57643;SDS011;43474;46.510;6.686;2024-02-28T03:15:17;18.08;;;8.70;;
57643;SDS011;43474;46.510;6.686;2024-02-28T03:17:45;18.13;;;8.25;;
57643;SDS011;43474;46.510;6.686;2024-02-28T03:20:11;14.70;;;8.30;;
57643;SDS011;43474;46.510;6.686;2024-02-28T03:22:40;19.73;;;8.68;;
57643;SDS011;43474;46.510;6.686;2024-02-28T03:25:06;19.50;;;8.45;;
57643;SDS011;43474;46.510;6.686;2024-02-28T03:27:32;15.40;;;8.05;;
57643;SDS011;43474;46.510;6.686;2024-02-28T03:29:58;21.90;;;9.02;;
57643;SDS011;43474;46.510;6.686;2024-02-28T03:32:30;14.43;;;6.18;;
57643;SDS011;43474;46.510;6.686;2024-02-28T03:34:56;21.88;;;8.30;;
57643;SDS011;43474;46.510;6.686;2024-02-28T03:37:22;18.77;;;7.93;;
57643;SDS011;43474;46.510;6.686;2024-02-28T03:39:48;15.63;;;7.25;;
57643;SDS011;43474;46.510;6.686;2024-02-28T03:42:14;19.75;;;8.35;;
57643;SDS011;43474;46.510;6.686;2024-02-28T03:44:43;20.65;;;9.68;;
57643;SDS011;43474;46.510;6.686;2024-02-28T03:47:09;19.50;;;7.45;;
57643;SDS011;43474;46.510;6.686;2024-02-28T03:49:35;18.75;;;8.05;;
57643;SDS011;43474;46.510;6.686;2024-02-28T03:52:01;19.27;;;8.90;;
57643;SDS011;43474;46.510;6.686;2024-02-28T03:54:27;13.18;;;7.47;;
57643;SDS011;43474;46.510;6.686;2024-02-28T03:56:56;15.38;;;6.50;;
57643;SDS011;43474;46.510;6.686;2024-02-28T03:59:21;18.40;;;7.72;;
57643;SDS011;43474;46.510;6.686;2024-02-28T04:01:47;21.13;;;8.50;;
57643;SDS011;43474;46.510;6.686;2024-02-28T04:04:13;19.92;;;9.18;;
57643;SDS011;43474;46.510;6.686;2024-02-28T04:06:39;18.63;;;7.60;;
57643;SDS011;43474;46.510;6.686;2024-02-28T04:09:08;20.05;;;8.90;;
57643;SDS011;43474;46.510;6.686;2024-02-28T04:11:34;14.55;;;7.40;;
57643;SDS011;43474;46.510;6.686;2024-02-28T04:14:02;18.08;;;8.52;;
57643;SDS011;43474;46.510;6.686;2024-02-28T04:16:31;19.70;;;7.22;;
57643;SDS011;43474;46.510;6.686;2024-02-28T04:18:57;15.73;;;7.45;;
57643;SDS011;43474;46.510;6.686;2024-02-28T04:21:23;19.55;;;8.18;;
57643;SDS011;43474;46.510;6.686;2024-02-28T04:23:49;19.25;;;8.57;;
57643;SDS011;43474;46.510;6.686;2024-02-28T04:26:18;17.80;;;6.90;;
57643;SDS011;43474;46.510;6.686;2024-02-28T04:28:47;11.68;;;5.95;;
57643;SDS011;43474;46.510;6.686;2024-02-28T04:31:16;15.20;;;6.45;;
57643;SDS011;43474;46.510;6.686;2024-02-28T04:33:41;17.42;;;9.25;;
57643;SDS011;43474;46.510;6.686;2024-02-28T04:36:10;13.55;;;6.68;;
57643;SDS011;43474;46.510;6.686;2024-02-28T04:38:35;19.70;;;7.60;;
57643;SDS011;43474;46.510;6.686;2024-02-28T04:41:06;11.98;;;5.70;;
57643;SDS011;43474;46.510;6.686;2024-02-28T04:43:31;16.17;;;7.35;;
57643;SDS011;43474;46.510;6.686;2024-02-28T04:45:58;14.57;;;6.72;;
57643;SDS011;43474;46.510;6.686;2024-02-28T04:48:23;20.05;;;6.85;;
57643;SDS011;43474;46.510;6.686;2024-02-28T04:50:49;18.85;;;9.40;;
57643;SDS011;43474;46.510;6.686;2024-02-28T04:53:15;20.63;;;9.07;;
57643;SDS011;43474;46.510;6.686;2024-02-28T04:55:41;12.75;;;7.30;;
57643;SDS011;43474;46.510;6.686;2024-02-28T04:58:07;17.00;;;7.07;;
57643;SDS011;43474;46.510;6.686;2024-02-28T05:00:33;15.60;;;6.22;;
57643;SDS011;43474;46.510;6.686;2024-02-28T05:02:59;17.10;;;8.57;;
57643;SDS011;43474;46.510;6.686;2024-02-28T05:05:27;14.50;;;6.97;;
57643;SDS011;43474;46.510;6.686;2024-02-28T05:07:53;14.00;;;6.93;;
57643;SDS011;43474;46.510;6.686;2024-02-28T05:10:19;17.95;;;6.55;;
57643;SDS011;43474;46.510;6.686;2024-02-28T05:12:45;14.45;;;8.80;;
57643;SDS011;43474;46.510;6.686;2024-02-28T05:15:11;14.20;;;7.55;;
57643;SDS011;43474;46.510;6.686;2024-02-28T05:17:37;18.02;;;8.05;;
57643;SDS011;43474;46.510;6.686;2024-02-28T05:20:03;12.43;;;7.53;;
57643;SDS011;43474;46.510;6.686;2024-02-28T05:22:29;12.40;;;5.40;;
57643;SDS011;43474;46.510;6.686;2024-02-28T05:24:55;15.10;;;6.90;;
57643;SDS011;43474;46.510;6.686;2024-02-28T05:27:21;15.05;;;7.95;;
57643;SDS011;43474;46.510;6.686;2024-02-28T05:29:50;12.45;;;7.10;;
57643;SDS011;43474;46.510;6.686;2024-02-28T05:32:15;13.75;;;6.13;;
57643;SDS011;43474;46.510;6.686;2024-02-28T05:34:42;16.42;;;6.70;;
57643;SDS011;43474;46.510;6.686;2024-02-28T05:37:11;10.50;;;6.28;;
57643;SDS011;43474;46.510;6.686;2024-02-28T05:39:37;16.67;;;7.93;;
57643;SDS011;43474;46.510;6.686;2024-02-28T05:42:03;21.95;;;7.13;;
57643;SDS011;43474;46.510;6.686;2024-02-28T05:44:29;12.68;;;6.68;;
57643;SDS011;43474;46.510;6.686;2024-02-28T05:46:56;10.05;;;5.63;;
57643;SDS011;43474;46.510;6.686;2024-02-28T05:49:22;12.00;;;7.25;;
57643;SDS011;43474;46.510;6.686;2024-02-28T05:51:50;14.50;;;7.82;;
57643;SDS011;43474;46.510;6.686;2024-02-28T05:54:16;19.45;;;8.02;;
57643;SDS011;43474;46.510;6.686;2024-02-28T05:56:44;14.90;;;6.78;;
57643;SDS011;43474;46.510;6.686;2024-02-28T05:59:10;10.13;;;5.40;;
57643;SDS011;43474;46.510;6.686;2024-02-28T06:01:37;14.88;;;7.10;;
57643;SDS011;43474;46.510;6.686;2024-02-28T06:04:06;12.98;;;7.00;;
57643;SDS011;43474;46.510;6.686;2024-02-28T06:06:31;16.42;;;6.40;;
57643;SDS011;43474;46.510;6.686;2024-02-28T06:08:57;11.18;;;5.18;;
57643;SDS011;43474;46.510;6.686;2024-02-28T06:11:23;16.20;;;6.72;;
57643;SDS011;43474;46.510;6.686;2024-02-28T06:13:50;12.23;;;5.05;;
57643;SDS011;43474;46.510;6.686;2024-02-28T06:16:16;12.70;;;5.18;;
57643;SDS011;43474;46.510;6.686;2024-02-28T06:18:44;19.40;;;5.82;;
57643;SDS011;43474;46.510;6.686;2024-02-28T06:21:10;16.40;;;6.18;;
57643;SDS011;43474;46.510;6.686;2024-02-28T06:23:38;19.55;;;7.75;;
57643;SDS011;43474;46.510;6.686;2024-02-28T06:26:04;12.75;;;6.47;;
57643;SDS011;43474;46.510;6.686;2024-02-28T06:28:31;14.13;;;6.50;;
57643;SDS011;43474;46.510;6.686;2024-02-28T06:30:59;17.63;;;6.63;;
57643;SDS011;43474;46.510;6.686;2024-02-28T06:33:25;16.73;;;7.78;;
57643;SDS011;43474;46.510;6.686;2024-02-28T06:35:53;15.15;;;7.75;;
57643;SDS011;43474;46.510;6.686;2024-02-28T06:38:19;9.35;;;5.53;;
57643;SDS011;43474;46.510;6.686;2024-02-28T06:40:45;13.38;;;5.63;;
57643;SDS011;43474;46.510;6.686;2024-02-28T06:43:11;12.23;;;6.45;;
57643;SDS011;43474;46.510;6.686;2024-02-28T06:45:38;13.13;;;5.85;;
57643;SDS011;43474;46.510;6.686;2024-02-28T06:48:06;9.88;;;5.20;;
57643;SDS011;43474;46.510;6.686;2024-02-28T06:50:32;12.85;;;6.82;;
57643;SDS011;43474;46.510;6.686;2024-02-28T06:52:58;12.70;;;6.90;;
57643;SDS011;43474;46.510;6.686;2024-02-28T06:55:30;14.23;;;5.32;;
57643;SDS011;43474;46.510;6.686;2024-02-28T06:57:55;18.95;;;7.90;;
57643;SDS011;43474;46.510;6.686;2024-02-28T07:00:22;15.07;;;5.85;;
57643;SDS011;43474;46.510;6.686;2024-02-28T07:02:48;10.27;;;5.13;;
57643;SDS011;43474;46.510;6.686;2024-02-28T07:05:13;20.73;;;8.75;;
57643;SDS011;43474;46.510;6.686;2024-02-28T07:07:40;11.02;;;5.97;;
57643;SDS011;43474;46.510;6.686;2024-02-28T07:10:06;7.50;;;5.03;;
57643;SDS011;43474;46.510;6.686;2024-02-28T07:12:32;14.88;;;7.35;;
57643;SDS011;43474;46.510;6.686;2024-02-28T07:14:58;16.80;;;6.63;;
57643;SDS011;43474;46.510;6.686;2024-02-28T07:17:24;11.57;;;7.07;;
57643;SDS011;43474;46.510;6.686;2024-02-28T07:19:50;12.95;;;5.25;;
57643;SDS011;43474;46.510;6.686;2024-02-28T07:22:17;16.08;;;6.70;;
57643;SDS011;43474;46.510;6.686;2024-02-28T07:24:45;15.07;;;7.50;;
57643;SDS011;43474;46.510;6.686;2024-02-28T07:27:11;11.88;;;6.20;;
57643;SDS011;43474;46.510;6.686;2024-02-28T07:29:37;11.13;;;5.35;;
57643;SDS011;43474;46.510;6.686;2024-02-28T07:32:03;12.85;;;5.38;;
57643;SDS011;43474;46.510;6.686;2024-02-28T07:34:29;6.82;;;3.85;;
57643;SDS011;43474;46.510;6.686;2024-02-28T07:36:55;9.95;;;5.65;;
57643;SDS011;43474;46.510;6.686;2024-02-28T07:39:23;11.15;;;5.90;;
57643;SDS011;43474;46.510;6.686;2024-02-28T07:41:50;13.38;;;6.05;;
57643;SDS011;43474;46.510;6.686;2024-02-28T07:44:16;13.00;;;5.93;;
57643;SDS011;43474;46.510;6.686;2024-02-28T07:46:42;8.75;;;4.72;;
57643;SDS011;43474;46.510;6.686;2024-02-28T07:49:08;14.07;;;7.18;;
57643;SDS011;43474;46.510;6.686;2024-02-28T07:51:34;11.43;;;6.55;;
57643;SDS011;43474;46.510;6.686;2024-02-28T07:53:59;14.13;;;6.57;;
57643;SDS011;43474;46.510;6.686;2024-02-28T07:56:26;14.18;;;7.18;;
57643;SDS011;43474;46.510;6.686;2024-02-28T07:58:51;15.27;;;7.82;;
57643;SDS011;43474;46.510;6.686;2024-02-28T08:01:17;13.77;;;6.18;;
57643;SDS011;43474;46.510;6.686;2024-02-28T08:03:43;7.75;;;4.07;;
57643;SDS011;43474;46.510;6.686;2024-02-28T08:06:09;14.45;;;5.90;;
57643;SDS011;43474;46.510;6.686;2024-02-28T08:08:35;8.85;;;6.15;;
57643;SDS011;43474;46.510;6.686;2024-02-28T08:11:02;8.07;;;4.65;;
57643;SDS011;43474;46.510;6.686;2024-02-28T08:13:48;7.70;;;5.35;;
57643;SDS011;43474;46.510;6.686;2024-02-28T08:16:22;10.75;;;4.90;;
57643;SDS011;43474;46.510;6.686;2024-02-28T08:18:47;8.82;;;4.95;;
57643;SDS011;43474;46.510;6.686;2024-02-28T08:21:29;14.98;;;6.07;;
57643;SDS011;43474;46.510;6.686;2024-02-28T08:23:54;14.63;;;7.35;;
57643;SDS011;43474;46.510;6.686;2024-02-28T08:26:21;16.92;;;6.35;;
57643;SDS011;43474;46.510;6.686;2024-02-28T08:28:48;11.27;;;6.55;;
57643;SDS011;43474;46.510;6.686;2024-02-28T08:31:16;16.30;;;5.43;;
57643;SDS011;43474;46.510;6.686;2024-02-28T08:33:42;7.45;;;2.33;;
57643;SDS011;43474;46.510;6.686;2024-02-28T08:36:11;11.85;;;6.55;;
57643;SDS011;43474;46.510;6.686;2024-02-28T08:38:44;12.43;;;6.50;;
57643;SDS011;43474;46.510;6.686;2024-02-28T08:41:13;13.45;;;7.35;;
57643;SDS011;43474;46.510;6.686;2024-02-28T08:43:45;11.38;;;6.45;;
57643;SDS011;43474;46.510;6.686;2024-02-28T08:46:16;17.13;;;7.25;;
57643;SDS011;43474;46.510;6.686;2024-02-28T08:48:43;12.00;;;5.68;;
57643;SDS011;43474;46.510;6.686;2024-02-28T08:51:12;9.40;;;5.82;;
57643;SDS011;43474;46.510;6.686;2024-02-28T08:53:37;16.58;;;6.78;;
57643;SDS011;43474;46.510;6.686;2024-02-28T08:59:22;10.93;;;5.68;;
57643;SDS011;43474;46.510;6.686;2024-02-28T09:02:10;17.37;;;7.40;;
57643;SDS011;43474;46.510;6.686;2024-02-28T09:04:44;22.02;;;6.32;;
57643;SDS011;43474;46.510;6.686;2024-02-28T09:07:14;10.43;;;6.03;;
57643;SDS011;43474;46.510;6.686;2024-02-28T09:09:47;12.13;;;6.85;;
57643;SDS011;43474;46.510;6.686;2024-02-28T09:12:13;11.25;;;5.20;;
57643;SDS011;43474;46.510;6.686;2024-02-28T09:14:39;9.75;;;5.30;;
57643;SDS011;43474;46.510;6.686;2024-02-28T09:17:05;11.38;;;6.13;;
57643;SDS011;43474;46.510;6.686;2024-02-28T09:19:31;14.13;;;6.30;;
57643;SDS011;43474;46.510;6.686;2024-02-28T09:22:05;15.82;;;6.65;;
57643;SDS011;43474;46.510;6.686;2024-02-28T09:27:43;13.85;;;6.65;;
57643;SDS011;43474;46.510;6.686;2024-02-28T09:30:40;13.15;;;5.55;;
57643;SDS011;43474;46.510;6.686;2024-02-28T09:33:07;14.48;;;5.10;;
57643;SDS011;43474;46.510;6.686;2024-02-28T09:35:45;14.68;;;6.07;;
57643;SDS011;43474;46.510;6.686;2024-02-28T09:38:11;11.10;;;5.15;;
57643;SDS011;43474;46.510;6.686;2024-02-28T09:40:49;16.83;;;6.25;;
57643;SDS011;43474;46.510;6.686;2024-02-28T09:43:33;15.57;;;6.13;;
57643;SDS011;43474;46.510;6.686;2024-02-28T09:46:29;9.98;;;5.78;;
57643;SDS011;43474;46.510;6.686;2024-02-28T09:49:46;9.00;;;5.60;;
57643;SDS011;43474;46.510;6.686;2024-02-28T09:52:32;9.27;;;3.72;;
57643;SDS011;43474;46.510;6.686;2024-02-28T09:55:12;12.75;;;5.47;;
57643;SDS011;43474;46.510;6.686;2024-02-28T09:57:37;18.80;;;6.10;;
57643;SDS011;43474;46.510;6.686;2024-02-28T10:00:07;8.80;;;4.82;;
57643;SDS011;43474;46.510;6.686;2024-02-28T10:02:36;7.75;;;4.53;;
57643;SDS011;43474;46.510;6.686;2024-02-28T10:09:23;15.90;;;6.70;;
57643;SDS011;43474;46.510;6.686;2024-02-28T10:11:59;13.95;;;7.13;;
57643;SDS011;43474;46.510;6.686;2024-02-28T10:14:35;16.23;;;7.00;;
57643;SDS011;43474;46.510;6.686;2024-02-28T10:17:09;9.57;;;5.68;;
57643;SDS011;43474;46.510;6.686;2024-02-28T10:19:43;12.40;;;5.40;;
57643;SDS011;43474;46.510;6.686;2024-02-28T10:22:16;14.70;;;5.97;;
57643;SDS011;43474;46.510;6.686;2024-02-28T10:25:20;15.02;;;6.97;;
57643;SDS011;43474;46.510;6.686;2024-02-28T10:28:07;11.68;;;6.07;;
57643;SDS011;43474;46.510;6.686;2024-02-28T10:30:52;12.43;;;4.70;;
57643;SDS011;43474;46.510;6.686;2024-02-28T10:33:19;11.82;;;5.53;;
57643;SDS011;43474;46.510;6.686;2024-02-28T10:35:46;8.52;;;4.07;;
57643;SDS011;43474;46.510;6.686;2024-02-28T10:38:17;12.52;;;5.15;;
57643;SDS011;43474;46.510;6.686;2024-02-28T10:40:46;12.95;;;5.10;;
57643;SDS011;43474;46.510;6.686;2024-02-28T10:43:12;12.95;;;4.78;;
57643;SDS011;43474;46.510;6.686;2024-02-28T10:45:47;8.75;;;3.65;;
57643;SDS011;43474;46.510;6.686;2024-02-28T10:52:33;9.25;;;4.32;;
57643;SDS011;43474;46.510;6.686;2024-02-28T10:55:02;14.23;;;4.75;;
57643;SDS011;43474;46.510;6.686;2024-02-28T10:57:33;11.45;;;5.38;;
57643;SDS011;43474;46.510;6.686;2024-02-28T11:03:43;10.53;;;4.90;;
57643;SDS011;43474;46.510;6.686;2024-02-28T11:07:00;7.10;;;4.57;;
57643;SDS011;43474;46.510;6.686;2024-02-28T11:09:41;8.23;;;4.38;;
57643;SDS011;43474;46.510;6.686;2024-02-28T11:12:35;6.95;;;3.83;;
57643;SDS011;43474;46.510;6.686;2024-02-28T11:15:24;7.78;;;4.03;;
57643;SDS011;43474;46.510;6.686;2024-02-28T11:25:34;10.05;;;4.65;;
57643;SDS011;43474;46.510;6.686;2024-02-28T11:28:24;7.82;;;4.03;;
57643;SDS011;43474;46.510;6.686;2024-02-28T11:30:53;9.85;;;4.63;;
57643;SDS011;43474;46.510;6.686;2024-02-28T11:33:27;8.98;;;4.35;;
57643;SDS011;43474;46.510;6.686;2024-02-28T11:36:00;11.68;;;4.45;;
57643;SDS011;43474;46.510;6.686;2024-02-28T11:38:42;9.77;;;4.82;;
57643;SDS011;43474;46.510;6.686;2024-02-28T11:41:15;9.60;;;5.07;;
57643;SDS011;43474;46.510;6.686;2024-02-28T11:43:56;11.32;;;5.57;;
57643;SDS011;43474;46.510;6.686;2024-02-28T11:46:25;10.43;;;5.05;;
57643;SDS011;43474;46.510;6.686;2024-02-28T11:48:52;9.48;;;5.20;;
57643;SDS011;43474;46.510;6.686;2024-02-28T11:51:38;9.60;;;4.45;;
57643;SDS011;43474;46.510;6.686;2024-02-28T11:54:16;9.15;;;4.13;;
57643;SDS011;43474;46.510;6.686;2024-02-28T11:57:27;6.82;;;4.00;;
57643;SDS011;43474;46.510;6.686;2024-02-28T12:11:50;10.27;;;4.57;;
57643;SDS011;43474;46.510;6.686;2024-02-28T12:21:58;9.35;;;4.25;;
57643;SDS011;43474;46.510;6.686;2024-02-28T12:25:05;7.93;;;4.03;;
57643;SDS011;43474;46.510;6.686;2024-02-28T12:28:28;8.02;;;4.00;;
57643;SDS011;43474;46.510;6.686;2024-02-28T12:32:09;12.50;;;5.15;;
57643;SDS011;43474;46.510;6.686;2024-02-28T12:34:49;6.00;;;4.03;;
57643;SDS011;43474;46.510;6.686;2024-02-28T12:37:15;9.25;;;5.43;;
57643;SDS011;43474;46.510;6.686;2024-02-28T12:44:26;9.57;;;4.50;;
57643;SDS011;43474;46.510;6.686;2024-02-28T12:47:32;10.27;;;4.00;;
57643;SDS011;43474;46.510;6.686;2024-02-28T12:50:11;10.65;;;5.03;;
57643;SDS011;43474;46.510;6.686;2024-02-28T12:52:44;10.15;;;5.10;;
57643;SDS011;43474;46.510;6.686;2024-02-28T12:55:25;6.65;;;3.20;;
57643;SDS011;43474;46.510;6.686;2024-02-28T12:57:56;9.85;;;4.93;;
57643;SDS011;43474;46.510;6.686;2024-02-28T13:00:47;11.30;;;4.57;;
57643;SDS011;43474;46.510;6.686;2024-02-28T13:04:22;6.45;;;3.88;;
57643;SDS011;43474;46.510;6.686;2024-02-28T13:06:50;7.40;;;4.15;;
57643;SDS011;43474;46.510;6.686;2024-02-28T13:09:19;10.90;;;4.80;;
57643;SDS011;43474;46.510;6.686;2024-02-28T13:11:46;9.48;;;4.15;;
57643;SDS011;43474;46.510;6.686;2024-02-28T13:14:13;8.70;;;4.20;;
57643;SDS011;43474;46.510;6.686;2024-02-28T13:16:41;9.23;;;4.40;;
57643;SDS011;43474;46.510;6.686;2024-02-28T13:19:08;10.07;;;4.80;;
57643;SDS011;43474;46.510;6.686;2024-02-28T13:21:34;10.38;;;3.95;;
57643;SDS011;43474;46.510;6.686;2024-02-28T13:24:01;12.68;;;4.95;;
57643;SDS011;43474;46.510;6.686;2024-02-28T13:26:32;9.80;;;4.40;;
57643;SDS011;43474;46.510;6.686;2024-02-28T13:28:58;9.98;;;5.00;;
57643;SDS011;43474;46.510;6.686;2024-02-28T13:31:23;10.10;;;5.30;;
57643;SDS011;43474;46.510;6.686;2024-02-28T13:33:49;12.00;;;5.63;;
57643;SDS011;43474;46.510;6.686;2024-02-28T13:39:26;9.13;;;4.60;;
57643;SDS011;43474;46.510;6.686;2024-02-28T13:41:52;7.90;;;3.40;;
57643;SDS011;43474;46.510;6.686;2024-02-28T13:44:19;6.20;;;4.07;;
57643;SDS011;43474;46.510;6.686;2024-02-28T13:46:45;10.82;;;5.43;;
57643;SDS011;43474;46.510;6.686;2024-02-28T13:49:12;12.15;;;5.57;;
57643;SDS011;43474;46.510;6.686;2024-02-28T13:51:39;8.65;;;3.83;;
57643;SDS011;43474;46.510;6.686;2024-02-28T13:54:05;13.82;;;5.05;;
57643;SDS011;43474;46.510;6.686;2024-02-28T13:56:31;12.45;;;5.82;;
57643;SDS011;43474;46.510;6.686;2024-02-28T13:58:57;8.25;;;4.82;;
57643;SDS011;43474;46.510;6.686;2024-02-28T14:01:23;12.30;;;5.03;;
57643;SDS011;43474;46.510;6.686;2024-02-28T14:03:49;12.57;;;5.82;;
57643;SDS011;43474;46.510;6.686;2024-02-28T14:06:14;14.85;;;6.07;;
57643;SDS011;43474;46.510;6.686;2024-02-28T14:08:40;18.02;;;5.18;;
57643;SDS011;43474;46.510;6.686;2024-02-28T14:11:06;12.65;;;5.15;;
57643;SDS011;43474;46.510;6.686;2024-02-28T14:13:32;10.13;;;4.97;;
57643;SDS011;43474;46.510;6.686;2024-02-28T14:15:58;15.63;;;5.93;;
57643;SDS011;43474;46.510;6.686;2024-02-28T14:18:24;9.48;;;4.15;;
57643;SDS011;43474;46.510;6.686;2024-02-28T14:20:49;8.10;;;4.80;;
57643;SDS011;43474;46.510;6.686;2024-02-28T14:23:15;8.43;;;4.95;;
57643;SDS011;43474;46.510;6.686;2024-02-28T14:25:43;9.98;;;4.53;;
57643;SDS011;43474;46.510;6.686;2024-02-28T14:28:08;8.38;;;5.30;;
57643;SDS011;43474;46.510;6.686;2024-02-28T14:30:34;11.52;;;5.10;;
57643;SDS011;43474;46.510;6.686;2024-02-28T14:33:01;10.80;;;4.97;;
57643;SDS011;43474;46.510;6.686;2024-02-28T14:35:26;12.48;;;5.15;;
57643;SDS011;43474;46.510;6.686;2024-02-28T14:37:52;10.63;;;5.63;;
57643;SDS011;43474;46.510;6.686;2024-02-28T14:40:18;12.88;;;4.63;;
57643;SDS011;43474;46.510;6.686;2024-02-28T14:42:44;10.45;;;5.13;;
57643;SDS011;43474;46.510;6.686;2024-02-28T14:45:12;9.05;;;4.72;;
57643;SDS011;43474;46.510;6.686;2024-02-28T14:47:45;12.02;;;6.47;;
57643;SDS011;43474;46.510;6.686;2024-02-28T14:50:10;7.95;;;4.45;;
57643;SDS011;43474;46.510;6.686;2024-02-28T14:52:37;8.95;;;4.45;;
57643;SDS011;43474;46.510;6.686;2024-02-28T14:55:03;13.35;;;5.38;;
57643;SDS011;43474;46.510;6.686;2024-02-28T14:57:30;8.95;;;5.22;;
57643;SDS011;43474;46.510;6.686;2024-02-28T14:59:56;12.45;;;4.50;;
57643;SDS011;43474;46.510;6.686;2024-02-28T15:02:23;11.10;;;5.30;;
57643;SDS011;43474;46.510;6.686;2024-02-28T15:04:49;10.77;;;5.88;;
57643;SDS011;43474;46.510;6.686;2024-02-28T15:07:15;7.28;;;4.15;;
57643;SDS011;43474;46.510;6.686;2024-02-28T15:09:41;9.82;;;4.95;;
57643;SDS011;43474;46.510;6.686;2024-02-28T15:12:07;12.27;;;4.95;;
57643;SDS011;43474;46.510;6.686;2024-02-28T15:14:33;7.78;;;4.40;;
57643;SDS011;43474;46.510;6.686;2024-02-28T15:16:59;11.25;;;4.53;;
57643;SDS011;43474;46.510;6.686;2024-02-28T15:19:25;12.10;;;4.97;;
57643;SDS011;43474;46.510;6.686;2024-02-28T15:21:55;11.23;;;4.95;;
57643;SDS011;43474;46.510;6.686;2024-02-28T15:24:21;15.05;;;5.70;;
57643;SDS011;43474;46.510;6.686;2024-02-28T15:26:47;11.00;;;5.28;;
57643;SDS011;43474;46.510;6.686;2024-02-28T15:29:16;9.25;;;4.68;;
57643;SDS011;43474;46.510;6.686;2024-02-28T15:31:42;8.05;;;4.25;;
57643;SDS011;43474;46.510;6.686;2024-02-28T15:34:07;10.00;;;5.10;;
57643;SDS011;43474;46.510;6.686;2024-02-28T15:36:34;10.30;;;5.32;;
57643;SDS011;43474;46.510;6.686;2024-02-28T15:38:59;10.32;;;5.32;;
57643;SDS011;43474;46.510;6.686;2024-02-28T15:41:25;8.55;;;3.65;;
57643;SDS011;43474;46.510;6.686;2024-02-28T15:43:51;11.63;;;5.43;;
57643;SDS011;43474;46.510;6.686;2024-02-28T15:46:16;8.90;;;4.00;;